sensor_id;sensor_type;location;lat;lon;timestamp;temperature;humidity
27741;DHT22;15134;48.768;9.184;2023-04-20T00:01:16;7.10;99.90
27741;DHT22;15134;48.768;9.184;2023-04-20T00:03:41;7.10;99.90
27741;DHT22;15134;48.768;9.184;2023-04-20T00:06:07;7.00;99.90
27741;DHT22;15134;48.768;9.184;2023-04-20T00:08:33;6.90;99.90
27741;DHT22;15134;48.768;9.184;2023-04-20T00:10:59;6.80;99.90
27741;DHT22;15134;48.768;9.184;2023-04-20T00:13:25;6.80;99.90
27741;DHT22;15134;48.768;9.184;2023-04-20T00:15:51;6.80;99.90
27741;DHT22;15134;48.768;9.184;2023-04-20T00:18:17;6.80;99.90
27741;DHT22;15134;48.768;9.184;2023-04-20T00:20:42;6.80;99.90
27741;DHT22;15134;48.768;9.184;2023-04-20T00:23:08;6.80;99.90
27741;DHT22;15134;48.768;9.184;2023-04-20T00:25:34;6.70;99.90
27741;DHT22;15134;48.768;9.184;2023-04-20T00:28:00;6.70;99.90
27741;DHT22;15134;48.768;9.184;2023-04-20T00:30:25;6.80;99.90
27741;DHT22;15134;48.768;9.184;2023-04-20T00:32:51;6.80;99.90
27741;DHT22;15134;48.768;9.184;2023-04-20T00:35:17;6.70;99.90
27741;DHT22;15134;48.768;9.184;2023-04-20T00:37:43;6.70;99.90
27741;DHT22;15134;48.768;9.184;2023-04-20T00:40:09;6.70;99.90
27741;DHT22;15134;48.768;9.184;2023-04-20T00:42:36;6.70;99.90
27741;DHT22;15134;48.768;9.184;2023-04-20T00:45:02;6.60;99.90
27741;DHT22;15134;48.768;9.184;2023-04-20T00:47:28;6.50;99.90
27741;DHT22;15134;48.768;9.184;2023-04-20T00:49:54;6.50;99.90
27741;DHT22;15134;48.768;9.184;2023-04-20T00:52:20;6.50;99.90
27741;DHT22;15134;48.768;9.184;2023-04-20T00:54:46;6.50;99.90
27741;DHT22;15134;48.768;9.184;2023-04-20T00:57:18;6.40;99.90
27741;DHT22;15134;48.768;9.184;2023-04-20T00:59:49;6.30;99.90
27741;DHT22;15134;48.768;9.184;2023-04-20T01:02:15;6.30;99.90
27741;DHT22;15134;48.768;9.184;2023-04-20T01:04:43;6.30;99.90
27741;DHT22;15134;48.768;9.184;2023-04-20T01:07:08;6.30;99.90
27741;DHT22;15134;48.768;9.184;2023-04-20T01:09:39;6.30;99.90
27741;DHT22;15134;48.768;9.184;2023-04-20T01:12:06;6.40;99.90
27741;DHT22;15134;48.768;9.184;2023-04-20T01:14:31;6.30;99.90
27741;DHT22;15134;48.768;9.184;2023-04-20T01:16:57;6.30;99.90
27741;DHT22;15134;48.768;9.184;2023-04-20T01:19:23;6.30;99.90
27741;DHT22;15134;48.768;9.184;2023-04-20T01:21:49;6.20;99.90
27741;DHT22;15134;48.768;9.184;2023-04-20T01:24:15;6.10;99.90
27741;DHT22;15134;48.768;9.184;2023-04-20T01:26:41;6.00;99.90
27741;DHT22;15134;48.768;9.184;2023-04-20T01:29:06;6.00;99.90
27741;DHT22;15134;48.768;9.184;2023-04-20T01:31:32;6.00;99.90
27741;DHT22;15134;48.768;9.184;2023-04-20T01:33:58;6.00;99.90
27741;DHT22;15134;48.768;9.184;2023-04-20T01:36:23;6.00;99.90
27741;DHT22;15134;48.768;9.184;2023-04-20T01:38:50;6.10;99.90
27741;DHT22;15134;48.768;9.184;2023-04-20T01:41:16;6.00;99.90
27741;DHT22;15134;48.768;9.184;2023-04-20T01:43:45;6.00;99.90
27741;DHT22;15134;48.768;9.184;2023-04-20T01:46:11;6.00;99.90
27741;DHT22;15134;48.768;9.184;2023-04-20T01:48:38;6.00;99.90
27741;DHT22;15134;48.768;9.184;2023-04-20T01:51:04;5.80;99.90
27741;DHT22;15134;48.768;9.184;2023-04-20T01:53:31;5.80;99.90
27741;DHT22;15134;48.768;9.184;2023-04-20T01:55:58;5.90;99.90
27741;DHT22;15134;48.768;9.184;2023-04-20T01:58:24;5.90;99.90
27741;DHT22;15134;48.768;9.184;2023-04-20T02:00:50;5.90;99.90
27741;DHT22;15134;48.768;9.184;2023-04-20T02:03:16;5.90;99.90
27741;DHT22;15134;48.768;9.184;2023-04-20T02:05:42;5.90;99.90
27741;DHT22;15134;48.768;9.184;2023-04-20T02:08:08;5.80;99.90
27741;DHT22;15134;48.768;9.184;2023-04-20T02:10:33;5.70;99.90
27741;DHT22;15134;48.768;9.184;2023-04-20T02:12:59;5.70;99.90
27741;DHT22;15134;48.768;9.184;2023-04-20T02:15:25;5.80;99.90
27741;DHT22;15134;48.768;9.184;2023-04-20T02:17:51;5.80;99.90
27741;DHT22;15134;48.768;9.184;2023-04-20T02:20:18;5.80;99.90
27741;DHT22;15134;48.768;9.184;2023-04-20T02:22:44;5.80;99.90
27741;DHT22;15134;48.768;9.184;2023-04-20T02:25:10;5.70;99.90
27741;DHT22;15134;48.768;9.184;2023-04-20T02:27:37;5.60;99.90
27741;DHT22;15134;48.768;9.184;2023-04-20T02:30:03;5.50;99.90
27741;DHT22;15134;48.768;9.184;2023-04-20T02:32:30;5.60;99.90
27741;DHT22;15134;48.768;9.184;2023-04-20T02:34:56;5.50;99.90
27741;DHT22;15134;48.768;9.184;2023-04-20T02:37:24;5.50;99.90
27741;DHT22;15134;48.768;9.184;2023-04-20T02:39:50;5.50;99.90
27741;DHT22;15134;48.768;9.184;2023-04-20T02:42:16;5.50;99.90
27741;DHT22;15134;48.768;9.184;2023-04-20T02:44:43;5.50;99.90
27741;DHT22;15134;48.768;9.184;2023-04-20T02:47:08;5.50;99.90
27741;DHT22;15134;48.768;9.184;2023-04-20T02:49:34;5.40;99.90
27741;DHT22;15134;48.768;9.184;2023-04-20T02:52:00;5.30;99.90
27741;DHT22;15134;48.768;9.184;2023-04-20T02:54:26;5.20;99.90
27741;DHT22;15134;48.768;9.184;2023-04-20T02:56:52;5.20;99.90
27741;DHT22;15134;48.768;9.184;2023-04-20T02:59:18;5.30;99.90
27741;DHT22;15134;48.768;9.184;2023-04-20T03:01:59;5.30;99.90
27741;DHT22;15134;48.768;9.184;2023-04-20T03:04:25;5.30;99.90
27741;DHT22;15134;48.768;9.184;2023-04-20T03:07:15;5.30;99.90
27741;DHT22;15134;48.768;9.184;2023-04-20T03:09:42;5.20;99.90
27741;DHT22;15134;48.768;9.184;2023-04-20T03:12:22;5.20;99.90
27741;DHT22;15134;48.768;9.184;2023-04-20T03:15:16;5.10;99.90
27741;DHT22;15134;48.768;9.184;2023-04-20T03:17:55;5.10;99.90
27741;DHT22;15134;48.768;9.184;2023-04-20T03:20:21;5.20;99.90
27741;DHT22;15134;48.768;9.184;2023-04-20T03:22:47;5.20;99.90
27741;DHT22;15134;48.768;9.184;2023-04-20T03:25:13;5.20;99.90
27741;DHT22;15134;48.768;9.184;2023-04-20T03:27:56;5.30;99.90
27741;DHT22;15134;48.768;9.184;2023-04-20T03:30:21;5.30;99.90
27741;DHT22;15134;48.768;9.184;2023-04-20T03:32:52;5.30;99.90
27741;DHT22;15134;48.768;9.184;2023-04-20T03:35:18;5.30;99.90
27741;DHT22;15134;48.768;9.184;2023-04-20T03:37:45;5.30;99.90
27741;DHT22;15134;48.768;9.184;2023-04-20T03:40:11;5.30;99.90
27741;DHT22;15134;48.768;9.184;2023-04-20T03:42:37;5.30;99.90
27741;DHT22;15134;48.768;9.184;2023-04-20T03:45:05;5.10;99.90
27741;DHT22;15134;48.768;9.184;2023-04-20T03:47:31;5.00;99.90
27741;DHT22;15134;48.768;9.184;2023-04-20T03:49:58;5.00;99.90
27741;DHT22;15134;48.768;9.184;2023-04-20T03:52:24;5.00;99.90
27741;DHT22;15134;48.768;9.184;2023-04-20T03:54:49;5.00;99.90
27741;DHT22;15134;48.768;9.184;2023-04-20T03:57:16;5.00;99.90
27741;DHT22;15134;48.768;9.184;2023-04-20T03:59:42;4.90;99.90
27741;DHT22;15134;48.768;9.184;2023-04-20T04:02:11;4.90;99.90
27741;DHT22;15134;48.768;9.184;2023-04-20T04:04:40;4.70;99.90
27741;DHT22;15134;48.768;9.184;2023-04-20T04:07:05;4.70;99.90
27741;DHT22;15134;48.768;9.184;2023-04-20T04:09:32;4.70;99.90
27741;DHT22;15134;48.768;9.184;2023-04-20T04:11:57;4.80;99.90
27741;DHT22;15134;48.768;9.184;2023-04-20T04:14:25;4.80;99.90
27741;DHT22;15134;48.768;9.184;2023-04-20T04:16:51;4.70;99.90
27741;DHT22;15134;48.768;9.184;2023-04-20T04:19:18;4.70;99.90
27741;DHT22;15134;48.768;9.184;2023-04-20T04:21:44;4.70;99.90
27741;DHT22;15134;48.768;9.184;2023-04-20T04:24:11;4.70;99.90
27741;DHT22;15134;48.768;9.184;2023-04-20T04:26:43;4.70;99.90
27741;DHT22;15134;48.768;9.184;2023-04-20T04:29:10;4.50;99.90
27741;DHT22;15134;48.768;9.184;2023-04-20T04:31:36;4.40;99.90
27741;DHT22;15134;48.768;9.184;2023-04-20T04:34:08;4.40;99.90
27741;DHT22;15134;48.768;9.184;2023-04-20T04:36:41;4.50;99.90
27741;DHT22;15134;48.768;9.184;2023-04-20T04:39:12;4.50;99.90
27741;DHT22;15134;48.768;9.184;2023-04-20T04:41:43;4.60;99.90
27741;DHT22;15134;48.768;9.184;2023-04-20T04:44:18;4.60;99.90
27741;DHT22;15134;48.768;9.184;2023-04-20T04:46:45;4.70;99.90
27741;DHT22;15134;48.768;9.184;2023-04-20T04:49:12;4.70;99.90
27741;DHT22;15134;48.768;9.184;2023-04-20T04:51:39;4.70;99.90
27741;DHT22;15134;48.768;9.184;2023-04-20T04:54:05;4.80;99.90
27741;DHT22;15134;48.768;9.184;2023-04-20T04:56:30;4.90;99.90
27741;DHT22;15134;48.768;9.184;2023-04-20T04:58:56;4.90;99.90
27741;DHT22;15134;48.768;9.184;2023-04-20T05:01:22;4.80;99.90
27741;DHT22;15134;48.768;9.184;2023-04-20T05:03:47;4.80;99.90
27741;DHT22;15134;48.768;9.184;2023-04-20T05:06:13;4.90;99.90
27741;DHT22;15134;48.768;9.184;2023-04-20T05:08:39;4.90;99.90
27741;DHT22;15134;48.768;9.184;2023-04-20T05:11:05;4.90;99.90
27741;DHT22;15134;48.768;9.184;2023-04-20T05:13:30;5.00;99.90
27741;DHT22;15134;48.768;9.184;2023-04-20T05:15:56;5.00;99.90
27741;DHT22;15134;48.768;9.184;2023-04-20T05:18:22;4.90;99.90
27741;DHT22;15134;48.768;9.184;2023-04-20T05:20:48;5.00;99.90
27741;DHT22;15134;48.768;9.184;2023-04-20T05:23:14;5.00;99.90
27741;DHT22;15134;48.768;9.184;2023-04-20T05:25:40;5.10;99.90
27741;DHT22;15134;48.768;9.184;2023-04-20T05:28:05;5.20;99.90
27741;DHT22;15134;48.768;9.184;2023-04-20T05:30:31;5.20;99.90
27741;DHT22;15134;48.768;9.184;2023-04-20T05:32:57;5.20;99.90
27741;DHT22;15134;48.768;9.184;2023-04-20T05:35:22;5.10;99.90
27741;DHT22;15134;48.768;9.184;2023-04-20T05:37:48;5.20;99.90
27741;DHT22;15134;48.768;9.184;2023-04-20T05:40:14;5.20;99.90
27741;DHT22;15134;48.768;9.184;2023-04-20T05:42:40;5.20;99.90
27741;DHT22;15134;48.768;9.184;2023-04-20T05:45:06;5.20;99.90
27741;DHT22;15134;48.768;9.184;2023-04-20T05:47:32;5.20;99.90
27741;DHT22;15134;48.768;9.184;2023-04-20T05:49:58;5.30;99.90
27741;DHT22;15134;48.768;9.184;2023-04-20T05:52:24;5.30;99.90
27741;DHT22;15134;48.768;9.184;2023-04-20T05:54:49;5.40;99.90
27741;DHT22;15134;48.768;9.184;2023-04-20T05:57:15;5.50;99.90
27741;DHT22;15134;48.768;9.184;2023-04-20T05:59:41;5.50;99.90
27741;DHT22;15134;48.768;9.184;2023-04-20T06:02:07;5.60;99.90
27741;DHT22;15134;48.768;9.184;2023-04-20T06:04:33;5.80;99.90
27741;DHT22;15134;48.768;9.184;2023-04-20T06:06:58;5.90;99.90
27741;DHT22;15134;48.768;9.184;2023-04-20T06:09:25;5.90;99.90
27741;DHT22;15134;48.768;9.184;2023-04-20T06:11:51;5.90;99.90
27741;DHT22;15134;48.768;9.184;2023-04-20T06:14:16;6.30;99.90
27741;DHT22;15134;48.768;9.184;2023-04-20T06:16:42;7.00;99.90
27741;DHT22;15134;48.768;9.184;2023-04-20T06:19:08;7.90;99.90
27741;DHT22;15134;48.768;9.184;2023-04-20T06:21:34;8.60;99.90
27741;DHT22;15134;48.768;9.184;2023-04-20T06:24:00;8.80;99.90
27741;DHT22;15134;48.768;9.184;2023-04-20T06:26:26;8.90;99.90
27741;DHT22;15134;48.768;9.184;2023-04-20T06:28:52;8.90;99.90
27741;DHT22;15134;48.768;9.184;2023-04-20T06:31:20;9.60;99.90
27741;DHT22;15134;48.768;9.184;2023-04-20T06:33:46;10.70;99.90
27741;DHT22;15134;48.768;9.184;2023-04-20T06:36:13;11.60;99.90
27741;DHT22;15134;48.768;9.184;2023-04-20T06:38:39;12.40;99.90
27741;DHT22;15134;48.768;9.184;2023-04-20T06:41:05;13.10;99.90
27741;DHT22;15134;48.768;9.184;2023-04-20T06:43:31;13.80;99.90
27741;DHT22;15134;48.768;9.184;2023-04-20T06:45:56;14.40;99.90
27741;DHT22;15134;48.768;9.184;2023-04-20T06:48:22;15.10;99.90
27741;DHT22;15134;48.768;9.184;2023-04-20T06:50:48;15.70;99.90
27741;DHT22;15134;48.768;9.184;2023-04-20T06:53:15;16.10;99.90
27741;DHT22;15134;48.768;9.184;2023-04-20T06:55:40;16.70;99.90
27741;DHT22;15134;48.768;9.184;2023-04-20T07:00:33;17.50;99.90
27741;DHT22;15134;48.768;9.184;2023-04-20T07:02:58;17.60;99.90
27741;DHT22;15134;48.768;9.184;2023-04-20T07:05:24;17.80;99.90
27741;DHT22;15134;48.768;9.184;2023-04-20T07:07:53;18.30;99.90
27741;DHT22;15134;48.768;9.184;2023-04-20T07:10:19;18.80;99.90
27741;DHT22;15134;48.768;9.184;2023-04-20T07:12:45;19.90;99.90
27741;DHT22;15134;48.768;9.184;2023-04-20T07:15:11;20.00;98.20
27741;DHT22;15134;48.768;9.184;2023-04-20T07:17:37;20.60;98.00
27741;DHT22;15134;48.768;9.184;2023-04-20T07:20:03;20.70;96.40
27741;DHT22;15134;48.768;9.184;2023-04-20T07:22:35;19.40;96.40
27741;DHT22;15134;48.768;9.184;2023-04-20T07:25:03;18.20;98.70
27741;DHT22;15134;48.768;9.184;2023-04-20T07:27:29;17.70;98.80
27741;DHT22;15134;48.768;9.184;2023-04-20T07:29:57;16.90;99.40
27741;DHT22;15134;48.768;9.184;2023-04-20T07:32:23;16.70;99.90
27741;DHT22;15134;48.768;9.184;2023-04-20T07:34:48;16.80;99.90
27741;DHT22;15134;48.768;9.184;2023-04-20T07:37:14;16.10;99.90
27741;DHT22;15134;48.768;9.184;2023-04-20T07:39:40;15.20;99.90
27741;DHT22;15134;48.768;9.184;2023-04-20T07:42:05;16.60;99.90
27741;DHT22;15134;48.768;9.184;2023-04-20T07:44:31;15.80;99.90
27741;DHT22;15134;48.768;9.184;2023-04-20T07:46:57;14.90;99.90
27741;DHT22;15134;48.768;9.184;2023-04-20T07:49:24;14.70;99.90
27741;DHT22;15134;48.768;9.184;2023-04-20T07:51:50;14.30;99.90
27741;DHT22;15134;48.768;9.184;2023-04-20T07:54:16;13.50;99.90
27741;DHT22;15134;48.768;9.184;2023-04-20T07:56:42;13.20;99.90
27741;DHT22;15134;48.768;9.184;2023-04-20T07:59:08;12.90;99.90
27741;DHT22;15134;48.768;9.184;2023-04-20T08:01:34;12.40;99.90
27741;DHT22;15134;48.768;9.184;2023-04-20T08:04:00;12.00;99.90
27741;DHT22;15134;48.768;9.184;2023-04-20T08:06:26;11.80;99.90
27741;DHT22;15134;48.768;9.184;2023-04-20T08:08:52;11.30;99.90
27741;DHT22;15134;48.768;9.184;2023-04-20T08:11:18;10.90;99.90
27741;DHT22;15134;48.768;9.184;2023-04-20T08:13:44;10.60;99.90
27741;DHT22;15134;48.768;9.184;2023-04-20T08:16:09;10.40;99.90
27741;DHT22;15134;48.768;9.184;2023-04-20T08:18:35;10.00;99.90
27741;DHT22;15134;48.768;9.184;2023-04-20T08:21:01;9.80;99.90
27741;DHT22;15134;48.768;9.184;2023-04-20T08:23:27;9.60;99.90
27741;DHT22;15134;48.768;9.184;2023-04-20T08:25:56;9.40;99.90
27741;DHT22;15134;48.768;9.184;2023-04-20T08:28:22;9.20;99.90
27741;DHT22;15134;48.768;9.184;2023-04-20T08:30:49;9.00;99.90
27741;DHT22;15134;48.768;9.184;2023-04-20T08:33:15;8.90;99.90
27741;DHT22;15134;48.768;9.184;2023-04-20T08:35:40;8.70;99.90
27741;DHT22;15134;48.768;9.184;2023-04-20T08:38:06;8.50;99.90
27741;DHT22;15134;48.768;9.184;2023-04-20T08:40:32;8.50;99.90
27741;DHT22;15134;48.768;9.184;2023-04-20T08:43:00;8.50;99.90
27741;DHT22;15134;48.768;9.184;2023-04-20T08:45:26;8.40;99.90
27741;DHT22;15134;48.768;9.184;2023-04-20T08:47:52;8.50;99.90
27741;DHT22;15134;48.768;9.184;2023-04-20T08:50:19;8.40;99.90
27741;DHT22;15134;48.768;9.184;2023-04-20T08:52:45;8.30;99.90
27741;DHT22;15134;48.768;9.184;2023-04-20T08:55:15;8.30;99.90
27741;DHT22;15134;48.768;9.184;2023-04-20T08:57:41;8.30;99.90
27741;DHT22;15134;48.768;9.184;2023-04-20T09:00:07;8.50;99.90
27741;DHT22;15134;48.768;9.184;2023-04-20T09:02:56;8.50;99.90
27741;DHT22;15134;48.768;9.184;2023-04-20T09:05:27;8.60;99.90
27741;DHT22;15134;48.768;9.184;2023-04-20T09:07:59;8.70;99.90
27741;DHT22;15134;48.768;9.184;2023-04-20T09:10:37;8.80;99.90
27741;DHT22;15134;48.768;9.184;2023-04-20T09:13:03;8.90;99.90
27741;DHT22;15134;48.768;9.184;2023-04-20T09:15:30;8.80;99.90
27741;DHT22;15134;48.768;9.184;2023-04-20T09:17:56;8.70;99.90
27741;DHT22;15134;48.768;9.184;2023-04-20T09:20:29;8.60;99.90
27741;DHT22;15134;48.768;9.184;2023-04-20T09:22:54;8.50;99.90
27741;DHT22;15134;48.768;9.184;2023-04-20T09:25:20;8.60;99.90
27741;DHT22;15134;48.768;9.184;2023-04-20T09:27:57;8.60;99.90
27741;DHT22;15134;48.768;9.184;2023-04-20T09:30:23;8.60;99.90
27741;DHT22;15134;48.768;9.184;2023-04-20T09:33:03;8.70;99.90
27741;DHT22;15134;48.768;9.184;2023-04-20T09:35:29;8.80;99.90
27741;DHT22;15134;48.768;9.184;2023-04-20T09:37:56;8.80;99.90
27741;DHT22;15134;48.768;9.184;2023-04-20T09:40:24;8.90;99.90
27741;DHT22;15134;48.768;9.184;2023-04-20T09:42:52;8.90;99.90
27741;DHT22;15134;48.768;9.184;2023-04-20T09:45:18;8.80;99.90
27741;DHT22;15134;48.768;9.184;2023-04-20T09:47:46;8.60;99.90
27741;DHT22;15134;48.768;9.184;2023-04-20T09:50:12;8.50;99.90
27741;DHT22;15134;48.768;9.184;2023-04-20T09:52:38;8.50;99.90
27741;DHT22;15134;48.768;9.184;2023-04-20T09:55:05;8.30;99.90
27741;DHT22;15134;48.768;9.184;2023-04-20T09:57:34;8.10;99.90
27741;DHT22;15134;48.768;9.184;2023-04-20T10:00:00;8.00;99.90
27741;DHT22;15134;48.768;9.184;2023-04-20T10:02:26;7.90;99.90
27741;DHT22;15134;48.768;9.184;2023-04-20T10:04:56;8.00;99.90
27741;DHT22;15134;48.768;9.184;2023-04-20T10:07:27;8.00;99.90
27741;DHT22;15134;48.768;9.184;2023-04-20T10:10:25;8.10;99.90
27741;DHT22;15134;48.768;9.184;2023-04-20T10:12:54;8.20;99.90
27741;DHT22;15134;48.768;9.184;2023-04-20T10:15:20;8.20;99.90
27741;DHT22;15134;48.768;9.184;2023-04-20T10:17:47;8.10;99.90
27741;DHT22;15134;48.768;9.184;2023-04-20T10:20:24;8.10;99.90
27741;DHT22;15134;48.768;9.184;2023-04-20T10:23:05;8.10;99.90
27741;DHT22;15134;48.768;9.184;2023-04-20T10:25:31;8.10;99.90
27741;DHT22;15134;48.768;9.184;2023-04-20T10:27:59;8.30;99.90
27741;DHT22;15134;48.768;9.184;2023-04-20T10:30:27;8.30;99.90
27741;DHT22;15134;48.768;9.184;2023-04-20T10:33:03;8.10;99.90
27741;DHT22;15134;48.768;9.184;2023-04-20T10:35:39;8.10;99.90
27741;DHT22;15134;48.768;9.184;2023-04-20T10:38:05;8.20;99.90
27741;DHT22;15134;48.768;9.184;2023-04-20T10:40:31;8.20;99.90
27741;DHT22;15134;48.768;9.184;2023-04-20T10:42:57;8.20;99.90
27741;DHT22;15134;48.768;9.184;2023-04-20T10:45:35;8.30;99.90
27741;DHT22;15134;48.768;9.184;2023-04-20T10:48:09;8.30;99.90
27741;DHT22;15134;48.768;9.184;2023-04-20T10:50:35;8.30;99.90
27741;DHT22;15134;48.768;9.184;2023-04-20T10:53:01;8.30;99.90
27741;DHT22;15134;48.768;9.184;2023-04-20T10:55:29;8.20;99.90
27741;DHT22;15134;48.768;9.184;2023-04-20T10:57:55;8.10;99.90
27741;DHT22;15134;48.768;9.184;2023-04-20T11:00:26;8.10;99.90
27741;DHT22;15134;48.768;9.184;2023-04-20T11:02:56;8.20;99.90
27741;DHT22;15134;48.768;9.184;2023-04-20T11:05:26;8.10;99.90
27741;DHT22;15134;48.768;9.184;2023-04-20T11:07:56;8.10;99.90
27741;DHT22;15134;48.768;9.184;2023-04-20T11:10:37;8.10;99.90
27741;DHT22;15134;48.768;9.184;2023-04-20T11:13:04;8.00;99.90
27741;DHT22;15134;48.768;9.184;2023-04-20T11:15:30;7.90;99.90
27741;DHT22;15134;48.768;9.184;2023-04-20T11:18:08;7.80;99.90
27741;DHT22;15134;48.768;9.184;2023-04-20T11:20:34;7.90;99.90
27741;DHT22;15134;48.768;9.184;2023-04-20T11:22:59;7.90;99.90
27741;DHT22;15134;48.768;9.184;2023-04-20T11:25:25;8.10;99.90
27741;DHT22;15134;48.768;9.184;2023-04-20T11:27:52;8.20;99.90
27741;DHT22;15134;48.768;9.184;2023-04-20T11:30:17;8.30;99.90
27741;DHT22;15134;48.768;9.184;2023-04-20T11:32:52;8.40;99.90
27741;DHT22;15134;48.768;9.184;2023-04-20T11:35:18;8.50;99.90
27741;DHT22;15134;48.768;9.184;2023-04-20T11:37:46;8.60;99.90
27741;DHT22;15134;48.768;9.184;2023-04-20T11:40:12;8.70;99.90
27741;DHT22;15134;48.768;9.184;2023-04-20T11:42:39;8.80;99.90
27741;DHT22;15134;48.768;9.184;2023-04-20T11:45:05;8.90;99.90
27741;DHT22;15134;48.768;9.184;2023-04-20T11:47:31;9.00;99.90
27741;DHT22;15134;48.768;9.184;2023-04-20T11:49:57;9.00;99.90
27741;DHT22;15134;48.768;9.184;2023-04-20T11:52:23;9.10;99.90
27741;DHT22;15134;48.768;9.184;2023-04-20T11:54:48;9.10;99.90
27741;DHT22;15134;48.768;9.184;2023-04-20T11:57:14;9.10;99.90
27741;DHT22;15134;48.768;9.184;2023-04-20T11:59:41;9.10;99.90
27741;DHT22;15134;48.768;9.184;2023-04-20T12:02:13;9.00;99.90
27741;DHT22;15134;48.768;9.184;2023-04-20T12:04:38;9.00;99.90
27741;DHT22;15134;48.768;9.184;2023-04-20T12:07:04;8.90;99.90
27741;DHT22;15134;48.768;9.184;2023-04-20T12:09:30;8.70;99.90
27741;DHT22;15134;48.768;9.184;2023-04-20T12:12:00;8.70;99.90
27741;DHT22;15134;48.768;9.184;2023-04-20T12:14:26;8.60;99.90
27741;DHT22;15134;48.768;9.184;2023-04-20T12:16:52;8.70;99.90
27741;DHT22;15134;48.768;9.184;2023-04-20T12:19:18;8.70;99.90
27741;DHT22;15134;48.768;9.184;2023-04-20T12:21:44;8.80;99.90
27741;DHT22;15134;48.768;9.184;2023-04-20T12:24:11;8.90;99.90
27741;DHT22;15134;48.768;9.184;2023-04-20T12:26:37;9.00;99.90
27741;DHT22;15134;48.768;9.184;2023-04-20T12:29:03;9.00;99.90
27741;DHT22;15134;48.768;9.184;2023-04-20T12:31:28;9.00;99.90
27741;DHT22;15134;48.768;9.184;2023-04-20T12:33:55;9.00;99.90
27741;DHT22;15134;48.768;9.184;2023-04-20T12:36:21;9.00;99.90
27741;DHT22;15134;48.768;9.184;2023-04-20T12:38:46;9.00;99.90
27741;DHT22;15134;48.768;9.184;2023-04-20T12:41:14;9.10;99.90
27741;DHT22;15134;48.768;9.184;2023-04-20T12:43:41;9.10;99.90
27741;DHT22;15134;48.768;9.184;2023-04-20T12:46:06;9.10;99.90
27741;DHT22;15134;48.768;9.184;2023-04-20T12:48:32;9.10;99.90
27741;DHT22;15134;48.768;9.184;2023-04-20T12:50:58;8.90;99.90
27741;DHT22;15134;48.768;9.184;2023-04-20T12:53:24;8.90;99.90
27741;DHT22;15134;48.768;9.184;2023-04-20T12:55:49;8.90;99.90
27741;DHT22;15134;48.768;9.184;2023-04-20T12:58:15;8.80;99.90
27741;DHT22;15134;48.768;9.184;2023-04-20T13:00:41;8.70;99.90
27741;DHT22;15134;48.768;9.184;2023-04-20T13:03:08;8.70;99.90
27741;DHT22;15134;48.768;9.184;2023-04-20T13:05:34;8.60;99.90
27741;DHT22;15134;48.768;9.184;2023-04-20T13:07:59;8.60;99.90
27741;DHT22;15134;48.768;9.184;2023-04-20T13:10:25;8.60;99.90
27741;DHT22;15134;48.768;9.184;2023-04-20T13:12:51;8.60;99.90
27741;DHT22;15134;48.768;9.184;2023-04-20T13:15:17;8.60;99.90
27741;DHT22;15134;48.768;9.184;2023-04-20T13:17:44;8.60;99.90
27741;DHT22;15134;48.768;9.184;2023-04-20T13:20:11;8.70;99.90
27741;DHT22;15134;48.768;9.184;2023-04-20T13:22:37;8.70;99.90
27741;DHT22;15134;48.768;9.184;2023-04-20T13:25:06;8.70;99.90
27741;DHT22;15134;48.768;9.184;2023-04-20T13:27:31;8.70;99.90
27741;DHT22;15134;48.768;9.184;2023-04-20T13:29:57;8.60;99.90
27741;DHT22;15134;48.768;9.184;2023-04-20T13:32:26;8.60;99.90
27741;DHT22;15134;48.768;9.184;2023-04-20T13:34:52;8.60;99.90
27741;DHT22;15134;48.768;9.184;2023-04-20T13:37:17;8.50;99.90
27741;DHT22;15134;48.768;9.184;2023-04-20T13:39:44;8.50;99.90
27741;DHT22;15134;48.768;9.184;2023-04-20T13:42:10;8.60;99.90
27741;DHT22;15134;48.768;9.184;2023-04-20T13:44:35;8.60;99.90
27741;DHT22;15134;48.768;9.184;2023-04-20T13:47:04;8.50;99.90
27741;DHT22;15134;48.768;9.184;2023-04-20T13:49:30;8.50;99.90
27741;DHT22;15134;48.768;9.184;2023-04-20T13:51:55;8.60;99.90
27741;DHT22;15134;48.768;9.184;2023-04-20T13:54:21;8.50;99.90
27741;DHT22;15134;48.768;9.184;2023-04-20T13:56:47;8.50;99.90
27741;DHT22;15134;48.768;9.184;2023-04-20T13:59:12;8.50;99.90
27741;DHT22;15134;48.768;9.184;2023-04-20T14:01:38;8.50;99.90
27741;DHT22;15134;48.768;9.184;2023-04-20T14:04:04;8.60;99.90
27741;DHT22;15134;48.768;9.184;2023-04-20T14:06:30;8.60;99.90
27741;DHT22;15134;48.768;9.184;2023-04-20T14:08:56;8.60;99.90
27741;DHT22;15134;48.768;9.184;2023-04-20T14:11:22;8.60;99.90
27741;DHT22;15134;48.768;9.184;2023-04-20T14:13:48;8.60;99.90
27741;DHT22;15134;48.768;9.184;2023-04-20T14:16:13;8.60;99.90
27741;DHT22;15134;48.768;9.184;2023-04-20T14:18:40;8.70;99.90
27741;DHT22;15134;48.768;9.184;2023-04-20T14:21:05;8.70;99.90
27741;DHT22;15134;48.768;9.184;2023-04-20T14:23:31;8.70;99.90
27741;DHT22;15134;48.768;9.184;2023-04-20T14:25:57;8.70;99.90
27741;DHT22;15134;48.768;9.184;2023-04-20T14:28:23;8.70;99.90
27741;DHT22;15134;48.768;9.184;2023-04-20T14:30:48;8.70;99.90
27741;DHT22;15134;48.768;9.184;2023-04-20T14:33:17;8.80;99.90
27741;DHT22;15134;48.768;9.184;2023-04-20T14:35:42;8.90;99.90
27741;DHT22;15134;48.768;9.184;2023-04-20T14:38:10;8.80;99.90
27741;DHT22;15134;48.768;9.184;2023-04-20T14:40:36;8.80;99.90
27741;DHT22;15134;48.768;9.184;2023-04-20T14:43:01;8.80;99.90
27741;DHT22;15134;48.768;9.184;2023-04-20T14:45:27;8.80;99.90
27741;DHT22;15134;48.768;9.184;2023-04-20T14:47:54;8.80;99.90
27741;DHT22;15134;48.768;9.184;2023-04-20T14:50:20;8.80;99.90
27741;DHT22;15134;48.768;9.184;2023-04-20T14:52:46;8.90;99.90
27741;DHT22;15134;48.768;9.184;2023-04-20T14:55:12;8.90;99.90
27741;DHT22;15134;48.768;9.184;2023-04-20T14:57:38;8.90;99.90
27741;DHT22;15134;48.768;9.184;2023-04-20T15:00:05;8.90;99.90
27741;DHT22;15134;48.768;9.184;2023-04-20T15:02:30;8.90;99.90
27741;DHT22;15134;48.768;9.184;2023-04-20T15:04:57;8.90;99.90
27741;DHT22;15134;48.768;9.184;2023-04-20T15:07:23;8.80;99.90
27741;DHT22;15134;48.768;9.184;2023-04-20T15:09:49;8.80;99.90
27741;DHT22;15134;48.768;9.184;2023-04-20T15:12:15;8.80;99.90
27741;DHT22;15134;48.768;9.184;2023-04-20T15:14:40;8.80;99.90
27741;DHT22;15134;48.768;9.184;2023-04-20T15:17:06;8.70;99.90
27741;DHT22;15134;48.768;9.184;2023-04-20T15:19:32;8.70;99.90
27741;DHT22;15134;48.768;9.184;2023-04-20T15:21:58;8.70;99.90
27741;DHT22;15134;48.768;9.184;2023-04-20T15:24:23;8.70;99.90
27741;DHT22;15134;48.768;9.184;2023-04-20T15:26:49;8.70;99.90
27741;DHT22;15134;48.768;9.184;2023-04-20T15:29:15;8.60;99.90
27741;DHT22;15134;48.768;9.184;2023-04-20T15:31:41;8.60;99.90
27741;DHT22;15134;48.768;9.184;2023-04-20T15:34:09;8.60;99.90
27741;DHT22;15134;48.768;9.184;2023-04-20T15:36:37;8.60;99.90
27741;DHT22;15134;48.768;9.184;2023-04-20T15:39:03;8.60;99.90
27741;DHT22;15134;48.768;9.184;2023-04-20T15:41:29;8.70;99.90
27741;DHT22;15134;48.768;9.184;2023-04-20T15:43:54;8.70;99.90
27741;DHT22;15134;48.768;9.184;2023-04-20T15:46:20;8.60;99.90